createdAt,value
2018-02-14T00:00:46.376Z,1.20
2018-02-14T00:03:14.092Z,1.20
2018-02-14T00:05:41.655Z,1.20
2018-02-14T00:08:09.321Z,1.20
2018-02-14T00:10:37.008Z,1.20
2018-02-14T00:13:04.729Z,1.20
2018-02-14T00:15:33.172Z,1.20
2018-02-14T00:18:00.940Z,1.10
2018-02-14T00:20:28.586Z,1.20
2018-02-14T00:22:56.257Z,1.20
2018-02-14T00:25:23.831Z,1.10
2018-02-14T00:27:51.624Z,1.10
2018-02-14T00:30:20.057Z,1.10
2018-02-14T00:32:47.751Z,1.00
2018-02-14T00:35:15.420Z,1.10
2018-02-14T00:37:43.110Z,1.00
2018-02-14T00:40:10.749Z,1.00
2018-02-14T00:42:39.312Z,1.00
2018-02-14T00:45:07.009Z,1.00
2018-02-14T00:47:34.607Z,1.00
2018-02-14T00:50:02.261Z,1.00
2018-02-14T00:52:29.902Z,0.90
2018-02-14T00:54:58.337Z,0.90
2018-02-14T00:57:25.946Z,0.90
2018-02-14T00:59:53.643Z,0.90
2018-02-14T01:02:21.388Z,0.90
2018-02-14T01:04:49.102Z,0.90
2018-02-14T01:07:16.798Z,0.90
2018-02-14T01:09:44.672Z,0.90
2018-02-14T01:12:12.407Z,0.90
2018-02-14T01:14:40.089Z,0.90
2018-02-14T01:17:08.642Z,0.80
2018-02-14T01:19:37.289Z,0.80
2018-02-14T01:22:04.983Z,0.80
2018-02-14T01:24:32.619Z,0.80
2018-02-14T01:27:00.310Z,0.70
2018-02-14T01:29:28.087Z,0.70
2018-02-14T01:31:56.187Z,0.70
2018-02-14T01:34:24.633Z,0.60
2018-02-14T01:36:52.359Z,0.60
2018-02-14T01:39:19.829Z,0.60
2018-02-14T01:41:47.513Z,0.60
2018-02-14T01:44:15.209Z,0.60
2018-02-14T01:46:43.662Z,0.60
2018-02-14T01:49:11.430Z,0.60
2018-02-14T01:51:39.184Z,0.60
2018-02-14T01:54:06.910Z,0.50
2018-02-14T01:56:34.624Z,0.60
2018-02-14T01:59:02.337Z,0.60
2018-02-14T02:01:29.944Z,0.50
2018-02-14T02:03:57.654Z,0.50
2018-02-14T02:06:25.252Z,0.50
2018-02-14T02:08:52.916Z,0.60
2018-02-14T02:11:20.561Z,0.50
2018-02-14T02:13:48.273Z,0.50
2018-02-14T02:16:16.764Z,0.50
2018-02-14T02:18:45.257Z,0.50
2018-02-14T02:21:13.002Z,0.50
2018-02-14T02:23:40.747Z,0.50
2018-02-14T02:26:08.463Z,0.50
2018-02-14T02:28:36.167Z,0.40
2018-02-14T02:31:03.822Z,0.40
2018-02-14T02:33:31.482Z,0.40
2018-02-14T02:35:59.167Z,0.40
2018-02-14T02:38:26.921Z,0.40
2018-02-14T02:40:54.598Z,0.40
2018-02-14T02:43:22.254Z,0.40
2018-02-14T02:45:50.031Z,0.40
2018-02-14T02:48:17.777Z,0.40
2018-02-14T02:50:45.500Z,0.30
2018-02-14T02:53:13.263Z,0.30
2018-02-14T02:55:40.957Z,0.30
2018-02-14T02:58:08.668Z,0.30
2018-02-14T03:00:36.371Z,0.30
2018-02-14T03:03:04.034Z,0.20
2018-02-14T03:05:31.687Z,0.30
2018-02-14T03:07:59.357Z,0.20
2018-02-14T03:10:26.968Z,0.20
2018-02-14T03:12:54.743Z,0.20
2018-02-14T03:15:22.395Z,0.30
2018-02-14T03:17:50.258Z,0.20
2018-02-14T03:20:17.900Z,0.20
2018-02-14T03:22:45.638Z,0.20
2018-02-14T03:25:13.497Z,0.20
2018-02-14T03:27:41.151Z,0.20
2018-02-14T03:30:08.855Z,0.20
2018-02-14T03:32:36.498Z,0.20
2018-02-14T03:35:04.333Z,0.20
2018-02-14T03:37:32.873Z,0.20
2018-02-14T03:40:00.638Z,0.20
2018-02-14T03:42:28.381Z,0.20
2018-02-14T03:44:56.060Z,0.10
2018-02-14T03:47:23.703Z,0.10
2018-02-14T03:49:51.332Z,0.10
2018-02-14T03:52:19.903Z,0.10
2018-02-14T03:54:47.623Z,0.10
2018-02-14T03:57:15.564Z,0.10
2018-02-14T03:59:43.240Z,0.10
2018-02-14T04:02:10.842Z,0.00
2018-02-14T04:04:38.553Z,0.00
2018-02-14T04:07:06.263Z,0.00
2018-02-14T04:09:33.942Z,0.00
2018-02-14T04:12:01.614Z,0.00
2018-02-14T04:14:29.333Z,0.00
2018-02-14T04:16:57.116Z,0.00
2018-02-14T04:19:26.904Z,0.00
2018-02-14T04:21:54.642Z,0.00
2018-02-14T04:24:23.108Z,0.00
2018-02-14T04:26:51.525Z,0.00
2018-02-14T04:29:19.196Z,-0.10
2018-02-14T04:31:46.910Z,0.00
2018-02-14T04:34:14.540Z,0.00
2018-02-14T04:36:42.319Z,0.00
2018-02-14T04:39:09.971Z,-0.10
2018-02-14T04:41:37.742Z,-0.10
2018-02-14T04:44:06.281Z,-0.10
2018-02-14T04:46:33.766Z,-0.10
2018-02-14T04:49:01.246Z,-0.10
2018-02-14T04:51:28.861Z,-0.10
2018-02-14T04:53:56.555Z,-0.10
2018-02-14T04:56:24.218Z,-0.10
2018-02-14T04:58:51.917Z,-0.10
2018-02-14T05:01:19.563Z,-0.10
2018-02-14T05:03:47.255Z,-0.10
2018-02-14T05:06:15.014Z,-0.20
2018-02-14T05:08:43.594Z,-0.20
2018-02-14T05:11:11.312Z,-0.20
2018-02-14T05:13:39.077Z,-0.20
2018-02-14T05:16:06.846Z,-0.20
2018-02-14T05:18:34.518Z,-0.20
2018-02-14T05:21:02.347Z,-0.20
2018-02-14T05:23:30.121Z,-0.20
2018-02-14T05:25:57.737Z,-0.20
2018-02-14T05:28:25.317Z,-0.20
2018-02-14T05:30:53.810Z,-0.20
2018-02-14T05:33:21.468Z,-0.30
2018-02-14T05:35:49.939Z,-0.30
2018-02-14T05:38:18.470Z,-0.30
2018-02-14T05:40:46.084Z,-0.30
2018-02-14T05:43:14.714Z,-0.30
2018-02-14T05:45:42.398Z,-0.30
2018-02-14T05:48:10.122Z,-0.30
2018-02-14T05:50:37.730Z,-0.30
2018-02-14T05:53:05.487Z,-0.30
2018-02-14T05:55:33.252Z,-0.30
2018-02-14T05:58:00.944Z,-0.40
2018-02-14T06:00:28.626Z,-0.40
2018-02-14T06:02:57.074Z,-0.40
2018-02-14T06:05:24.717Z,-0.40
2018-02-14T06:07:52.364Z,-0.40
2018-02-14T06:10:20.048Z,-0.40
2018-02-14T06:12:47.785Z,-0.40
2018-02-14T06:15:15.454Z,-0.40
2018-02-14T06:17:43.310Z,-0.50
2018-02-14T06:20:11.003Z,-0.50
2018-02-14T06:22:38.648Z,-0.50
2018-02-14T06:25:06.399Z,-0.50
2018-02-14T06:27:33.913Z,-0.50
2018-02-14T06:30:02.389Z,-0.50
2018-02-14T06:32:30.127Z,-0.50
2018-02-14T06:34:57.808Z,-0.50
2018-02-14T06:37:25.443Z,-0.50
2018-02-14T06:39:53.278Z,-0.50
2018-02-14T06:42:20.953Z,-0.50
2018-02-14T06:44:48.719Z,-0.50
2018-02-14T06:47:16.487Z,-0.50
2018-02-14T06:49:44.199Z,-0.50
2018-02-14T06:52:11.994Z,-0.50
2018-02-14T06:54:40.623Z,-0.50
2018-02-14T06:57:08.326Z,-0.50
2018-02-14T06:59:36.789Z,-0.30
2018-02-14T07:02:04.487Z,-0.40
2018-02-14T07:04:33.183Z,-0.40
2018-02-14T07:07:01.012Z,-0.40
2018-02-14T07:09:29.552Z,-0.40
2018-02-14T07:11:57.327Z,-0.40
2018-02-14T07:14:25.032Z,-0.40
2018-02-14T07:16:52.663Z,-0.40
2018-02-14T07:19:20.364Z,-0.40
2018-02-14T07:21:48.962Z,-0.40
2018-02-14T07:24:16.654Z,-0.40
2018-02-14T07:26:44.447Z,-0.40
2018-02-14T07:29:12.264Z,-0.40
2018-02-14T07:31:39.981Z,-0.40
2018-02-14T07:34:07.706Z,-0.40
2018-02-14T07:36:35.272Z,-0.30
2018-02-14T07:39:03.229Z,-0.30
2018-02-14T07:41:30.908Z,-0.30
2018-02-14T07:43:58.600Z,-0.30
2018-02-14T07:46:26.393Z,-0.20
2018-02-14T07:48:53.955Z,-0.20
2018-02-14T07:51:22.458Z,-0.10
2018-02-14T07:53:50.223Z,-0.10
2018-02-14T07:56:17.893Z,0.00
2018-02-14T07:58:45.641Z,0.00
2018-02-14T08:01:13.882Z,0.10
2018-02-14T08:03:41.696Z,0.10
2018-02-14T08:06:09.413Z,0.10
2018-02-14T08:08:37.077Z,0.20
2018-02-14T08:11:04.820Z,0.20
2018-02-14T08:13:32.502Z,0.20
2018-02-14T08:16:00.203Z,0.30
2018-02-14T08:18:28.638Z,0.30
2018-02-14T08:20:56.461Z,0.30
2018-02-14T08:23:25.483Z,0.40
2018-02-14T08:25:54.167Z,0.50
2018-02-14T08:28:21.989Z,0.50
2018-02-14T08:30:49.765Z,0.50
2018-02-14T08:33:17.456Z,0.50
2018-02-14T08:35:45.128Z,0.60
2018-02-14T08:38:13.472Z,0.60
2018-02-14T08:40:41.116Z,0.70
2018-02-14T08:43:08.856Z,0.70
2018-02-14T08:45:36.559Z,0.80
2018-02-14T08:48:05.072Z,0.80
2018-02-14T08:50:32.756Z,0.80
2018-02-14T08:53:00.431Z,0.90
2018-02-14T08:55:28.068Z,0.90
2018-02-14T08:57:55.856Z,1.00
2018-02-14T09:00:23.592Z,1.00
2018-02-14T09:02:51.248Z,1.00
2018-02-14T09:05:18.869Z,1.10
2018-02-14T09:07:47.322Z,1.20
2018-02-14T09:10:14.973Z,1.20
2018-02-14T09:12:42.871Z,1.20
2018-02-14T09:15:10.694Z,1.30
2018-02-14T09:17:38.459Z,1.30
2018-02-14T09:20:06.129Z,1.40
2018-02-14T09:22:33.695Z,1.40
2018-02-14T09:25:01.391Z,1.50
2018-02-14T09:27:28.973Z,1.50
2018-02-14T09:29:56.656Z,1.60
2018-02-14T09:32:24.178Z,1.60
2018-02-14T09:34:51.862Z,1.70
2018-02-14T09:37:20.295Z,1.80
2018-02-14T09:39:48.062Z,1.80
2018-02-14T09:42:15.879Z,1.90
2018-02-14T09:44:44.324Z,1.90
2018-02-14T09:47:12.049Z,1.90
2018-02-14T09:49:39.870Z,2.00
2018-02-14T09:52:07.467Z,2.10
2018-02-14T09:54:35.143Z,2.20
2018-02-14T09:57:02.827Z,2.20
2018-02-14T09:59:30.469Z,2.30
2018-02-14T10:01:58.215Z,2.30
2018-02-14T10:04:25.823Z,2.30
2018-02-14T10:06:53.547Z,2.30
2018-02-14T10:09:24.284Z,2.40
2018-02-14T10:11:52.048Z,2.50
2018-02-14T10:14:19.719Z,2.50
2018-02-14T10:16:47.358Z,2.50
2018-02-14T10:19:15.179Z,2.60
2018-02-14T10:21:42.790Z,2.60
2018-02-14T10:24:10.563Z,2.70
2018-02-14T10:26:38.367Z,2.70
2018-02-14T10:29:06.142Z,2.80
2018-02-14T10:31:33.875Z,2.80
2018-02-14T10:34:01.658Z,2.90
2018-02-14T10:36:29.412Z,2.90
2018-02-14T10:38:57.164Z,3.00
2018-02-14T10:41:24.944Z,3.00
2018-02-14T10:43:52.646Z,3.10
2018-02-14T10:46:20.388Z,3.10
2018-02-14T10:48:48.077Z,3.20
2018-02-14T10:51:15.789Z,3.20
2018-02-14T10:53:43.274Z,3.30
2018-02-14T10:56:10.948Z,3.30
2018-02-14T10:58:38.642Z,3.30
2018-02-14T11:01:06.357Z,3.40
2018-02-14T11:03:39.830Z,3.40
2018-02-14T11:06:13.635Z,3.50
2018-02-14T11:08:41.259Z,3.50
2018-02-14T11:11:09.678Z,3.60
2018-02-14T11:13:37.429Z,3.60
2018-02-14T11:16:05.181Z,3.70
2018-02-14T11:18:32.997Z,3.70
2018-02-14T11:21:00.802Z,3.70
2018-02-14T11:23:29.278Z,3.90
2018-02-14T11:25:57.014Z,3.90
2018-02-14T11:28:24.669Z,3.90
2018-02-14T11:30:52.347Z,3.90
2018-02-14T11:33:19.981Z,4.00
2018-02-14T11:35:47.782Z,4.00
2018-02-14T11:38:15.516Z,4.10
2018-02-14T11:40:43.214Z,4.10
2018-02-14T11:43:10.857Z,4.10
2018-02-14T11:45:38.641Z,4.20
2018-02-14T11:48:06.283Z,4.30
2018-02-14T11:50:33.962Z,4.30
2018-02-14T11:53:01.670Z,4.40
2018-02-14T11:55:29.389Z,4.40
2018-02-14T11:57:57.077Z,4.50
2018-02-14T12:00:24.717Z,4.50
2018-02-14T12:02:52.419Z,4.60
2018-02-14T12:05:20.171Z,4.60
2018-02-14T12:07:48.640Z,4.70
2018-02-14T12:10:16.318Z,4.70
2018-02-14T12:12:44.774Z,4.80
2018-02-14T12:15:12.531Z,4.80
2018-02-14T12:17:40.260Z,4.90
2018-02-14T12:20:07.961Z,4.90
2018-02-14T12:22:35.729Z,4.90
2018-02-14T12:25:03.521Z,5.00
2018-02-14T12:27:31.908Z,5.10
2018-02-14T12:29:59.766Z,5.10
2018-02-14T12:32:27.375Z,5.10
2018-02-14T12:34:55.049Z,5.10
2018-02-14T12:37:23.576Z,5.20
2018-02-14T12:39:51.290Z,5.20
2018-02-14T12:42:18.881Z,5.20
2018-02-14T12:44:46.693Z,5.30
2018-02-14T12:47:15.193Z,5.30
2018-02-14T12:49:42.847Z,5.30
2018-02-14T12:52:10.520Z,5.40
2018-02-14T12:54:38.374Z,5.40
2018-02-14T12:57:06.066Z,5.50
2018-02-14T12:59:33.770Z,5.50
2018-02-14T13:02:02.187Z,5.60
2018-02-14T13:04:29.858Z,5.60
2018-02-14T13:06:57.459Z,5.60
2018-02-14T13:09:25.153Z,5.60
2018-02-14T13:11:52.804Z,5.70
2018-02-14T13:14:21.328Z,5.80
2018-02-14T13:16:49.077Z,5.80
2018-02-14T13:19:16.740Z,5.90
2018-02-14T13:21:44.517Z,5.90
2018-02-14T13:24:12.089Z,6.00
2018-02-14T13:26:39.849Z,6.00
2018-02-14T13:29:07.558Z,6.00
2018-02-14T13:31:35.996Z,6.20
2018-02-14T13:34:03.750Z,6.20
2018-02-14T13:36:31.365Z,6.20
2018-02-14T13:38:59.019Z,6.30
2018-02-14T13:41:26.937Z,6.30
2018-02-14T13:43:54.615Z,6.30
2018-02-14T13:46:22.285Z,6.40
2018-02-14T13:48:50.673Z,6.50
2018-02-14T13:51:18.392Z,6.50
2018-02-14T13:53:46.064Z,6.50
2018-02-14T13:56:13.805Z,6.70
2018-02-14T13:58:42.312Z,8.60
2018-02-14T14:01:10.009Z,8.50
2018-02-14T14:03:38.480Z,11.90
2018-02-14T14:06:06.237Z,11.80
2018-02-14T14:08:33.979Z,13.50
2018-02-14T14:11:01.519Z,14.60
2018-02-14T14:13:29.161Z,15.80
2018-02-14T14:15:56.820Z,17.00
2018-02-14T14:18:24.621Z,18.30
2018-02-14T14:20:52.316Z,19.60
2018-02-14T14:23:19.913Z,20.50
2018-02-14T14:25:47.560Z,21.00
2018-02-14T14:28:15.219Z,21.50
2018-02-14T14:30:42.888Z,21.80
2018-02-14T14:33:10.620Z,22.10
2018-02-14T14:35:38.301Z,22.20
2018-02-14T14:38:05.976Z,22.20
2018-02-14T14:40:33.881Z,22.50
2018-02-14T14:43:01.587Z,22.60
2018-02-14T14:45:29.249Z,22.60
2018-02-14T14:47:57.042Z,22.40
2018-02-14T14:50:24.669Z,22.00
2018-02-14T14:52:52.239Z,22.00
2018-02-14T14:55:19.933Z,21.80
2018-02-14T14:57:47.732Z,21.00
2018-02-14T15:00:15.368Z,19.90
2018-02-14T15:02:43.058Z,19.00
2018-02-14T15:05:10.726Z,18.60
2018-02-14T15:07:38.425Z,18.50
2018-02-14T15:10:06.135Z,19.20
2018-02-14T15:12:33.689Z,20.00
2018-02-14T15:15:01.312Z,20.50
2018-02-14T15:17:28.990Z,21.00
2018-02-14T15:19:56.640Z,20.50
2018-02-14T15:22:24.309Z,19.60
2018-02-14T15:24:52.099Z,18.50
2018-02-14T15:27:19.911Z,17.60
2018-02-14T15:29:47.741Z,17.00
2018-02-14T15:32:15.415Z,16.80
2018-02-14T15:34:43.848Z,15.50
2018-02-14T15:37:11.506Z,15.40
2018-02-14T15:39:39.180Z,14.70
2018-02-14T15:42:06.873Z,13.90
2018-02-14T15:44:35.368Z,12.20
2018-02-14T15:47:03.134Z,12.10
2018-02-14T15:49:31.617Z,11.00
2018-02-14T15:52:00.078Z,11.00
2018-02-14T15:54:27.785Z,11.00
2018-02-14T15:56:55.637Z,11.20
2018-02-14T15:59:23.412Z,11.00
2018-02-14T16:01:51.164Z,10.60
2018-02-14T16:04:18.825Z,10.20
2018-02-14T16:06:46.564Z,10.00
2018-02-14T16:09:15.080Z,9.60
2018-02-14T16:11:42.857Z,9.50
2018-02-14T16:14:10.449Z,9.20
2018-02-14T16:16:38.341Z,8.90
2018-02-14T16:19:06.113Z,8.60
2018-02-14T16:21:33.798Z,8.30
2018-02-14T16:24:02.337Z,7.80
2018-02-14T16:26:30.218Z,7.80
2018-02-14T16:28:58.745Z,7.40
2018-02-14T16:31:26.422Z,7.40
2018-02-14T16:33:54.216Z,7.20
2018-02-14T16:36:22.087Z,7.00
2018-02-14T16:38:49.823Z,6.80
2018-02-14T16:41:17.559Z,6.60
2018-02-14T16:43:45.172Z,6.50
2018-02-14T16:46:12.891Z,6.40
2018-02-14T16:48:40.485Z,6.20
2018-02-14T16:51:08.172Z,6.10
2018-02-14T16:53:35.862Z,6.00
2018-02-14T16:56:03.707Z,5.90
2018-02-14T16:58:31.390Z,5.80
2018-02-14T17:00:59.063Z,5.70
2018-02-14T17:03:26.830Z,5.60
2018-02-14T17:05:54.503Z,5.50
2018-02-14T17:08:22.140Z,5.40
2018-02-14T17:10:50.578Z,5.30
2018-02-14T17:13:18.259Z,5.30
2018-02-14T17:15:45.958Z,5.30
2018-02-14T17:18:14.596Z,5.20
2018-02-14T17:20:42.305Z,5.20
2018-02-14T17:23:10.724Z,5.30
2018-02-14T17:25:38.458Z,5.20
2018-02-14T17:28:06.221Z,5.30
2018-02-14T17:30:34.122Z,5.30
2018-02-14T17:33:01.859Z,5.30
2018-02-14T17:35:29.520Z,5.40
2018-02-14T17:37:57.360Z,5.40
2018-02-14T17:40:25.181Z,5.40
2018-02-14T17:42:52.991Z,5.40
2018-02-14T17:45:20.697Z,5.40
2018-02-14T17:47:48.463Z,5.40
2018-02-14T17:50:16.182Z,5.40
2018-02-14T17:52:44.018Z,5.40
2018-02-14T17:55:11.661Z,5.40
2018-02-14T17:57:39.431Z,5.40
2018-02-14T18:00:07.124Z,5.40
2018-02-14T18:02:34.832Z,5.40
2018-02-14T18:05:02.654Z,5.40
2018-02-14T18:07:30.395Z,5.40
2018-02-14T18:09:58.303Z,5.30
2018-02-14T18:12:26.202Z,5.30
2018-02-14T18:14:54.000Z,5.30
2018-02-14T18:17:21.828Z,5.30
2018-02-14T18:19:49.408Z,5.30
2018-02-14T18:22:17.319Z,5.30
2018-02-14T18:24:45.378Z,5.30
2018-02-14T18:27:13.334Z,5.20
2018-02-14T18:29:42.140Z,5.30
2018-02-14T18:32:10.129Z,5.20
2018-02-14T18:34:38.634Z,5.20
2018-02-14T18:37:07.151Z,5.20
2018-02-14T18:39:34.939Z,5.20
2018-02-14T18:42:02.735Z,5.20
2018-02-14T18:44:30.507Z,5.20
2018-02-14T18:46:59.038Z,5.20
2018-02-14T18:49:26.995Z,5.10
2018-02-14T18:51:54.891Z,5.20
2018-02-14T18:54:22.560Z,5.20
2018-02-14T18:56:50.157Z,5.20
2018-02-14T18:59:18.567Z,5.10
2018-02-14T19:01:46.275Z,5.10
2018-02-14T19:04:14.031Z,5.10
2018-02-14T19:06:43.254Z,5.10
2018-02-14T19:09:11.891Z,5.10
2018-02-14T19:11:39.545Z,5.00
2018-02-14T19:14:07.202Z,5.10
2018-02-14T19:16:34.938Z,5.00
2018-02-14T19:19:03.461Z,5.00
2018-02-14T19:21:31.098Z,5.00
2018-02-14T19:23:58.855Z,5.00
2018-02-14T19:26:26.535Z,5.00
2018-02-14T19:28:54.075Z,5.00
2018-02-14T19:31:22.559Z,5.00
2018-02-14T19:33:50.953Z,4.90
2018-02-14T19:36:18.596Z,4.90
2018-02-14T19:38:46.416Z,4.90
2018-02-14T19:41:14.129Z,4.90
2018-02-14T19:43:42.584Z,4.90
2018-02-14T19:46:10.925Z,4.90
2018-02-14T19:48:38.743Z,4.90
2018-02-14T19:51:06.520Z,4.90
2018-02-14T19:53:34.376Z,4.90
2018-02-14T19:56:02.182Z,4.90
2018-02-14T19:58:30.042Z,4.90
2018-02-14T20:00:57.963Z,4.90
2018-02-14T20:03:25.772Z,4.90
2018-02-14T20:05:53.696Z,4.90
2018-02-14T20:08:21.884Z,4.90
2018-02-14T20:10:49.688Z,4.80
2018-02-14T20:13:17.535Z,4.80
2018-02-14T20:15:45.336Z,4.80
2018-02-14T20:18:13.403Z,4.80
2018-02-14T20:20:41.078Z,4.80
2018-02-14T20:23:08.885Z,4.80
2018-02-14T20:25:36.990Z,4.80
2018-02-14T20:28:04.951Z,4.80
2018-02-14T20:30:32.939Z,4.80
2018-02-14T20:33:00.821Z,4.70
2018-02-14T20:35:29.996Z,4.70
2018-02-14T20:37:57.942Z,4.70
2018-02-14T20:40:25.773Z,4.70
2018-02-14T20:42:53.678Z,4.70
2018-02-14T20:45:21.871Z,4.70
2018-02-14T20:47:50.992Z,4.70
2018-02-14T20:50:18.686Z,4.70
2018-02-14T20:52:46.722Z,4.70
2018-02-14T20:55:14.506Z,4.70
2018-02-14T20:57:42.448Z,4.70
2018-02-14T21:00:10.315Z,4.70
2018-02-14T21:02:38.153Z,4.70
2018-02-14T21:05:05.879Z,4.70
2018-02-14T21:07:34.332Z,4.70
2018-02-14T21:10:02.158Z,4.70
2018-02-14T21:12:29.906Z,4.70
2018-02-14T21:14:57.788Z,4.70
2018-02-14T21:17:25.623Z,4.70
2018-02-14T21:19:53.679Z,4.70
2018-02-14T21:22:21.414Z,4.70
2018-02-14T21:24:49.226Z,4.70
2018-02-14T21:27:16.896Z,4.60
2018-02-14T21:29:44.619Z,4.60
2018-02-14T21:32:12.327Z,4.70
2018-02-14T21:34:40.788Z,4.60
2018-02-14T21:37:08.488Z,4.60
2018-02-14T21:39:36.212Z,4.70
2018-02-14T21:42:04.081Z,4.70
2018-02-14T21:44:32.020Z,4.60
2018-02-14T21:46:59.757Z,4.60
2018-02-14T21:49:27.482Z,4.60
2018-02-14T21:51:55.224Z,4.60
2018-02-14T21:54:22.983Z,4.60
2018-02-14T21:56:50.793Z,4.60
2018-02-14T21:59:18.485Z,4.60
2018-02-14T22:01:46.147Z,4.60
2018-02-14T22:04:13.878Z,4.60
2018-02-14T22:06:41.768Z,4.60
2018-02-14T22:09:09.558Z,4.60
2018-02-14T22:11:38.044Z,4.60
2018-02-14T22:14:05.905Z,4.60
2018-02-14T22:16:34.422Z,4.60
2018-02-14T22:19:02.186Z,4.60
2018-02-14T22:21:30.020Z,4.60
2018-02-14T22:23:57.650Z,4.60
2018-02-14T22:26:25.379Z,4.60
2018-02-14T22:28:53.137Z,4.60
2018-02-14T22:31:20.910Z,4.60
2018-02-14T22:33:48.576Z,4.60
2018-02-14T22:36:16.352Z,4.60
2018-02-14T22:38:44.053Z,4.60
2018-02-14T22:41:11.783Z,4.60
2018-02-14T22:43:39.562Z,4.60
2018-02-14T22:46:07.330Z,4.60
2018-02-14T22:48:35.038Z,4.60
2018-02-14T22:51:03.604Z,4.60
2018-02-14T22:53:31.320Z,4.50
2018-02-14T22:55:59.006Z,4.50
2018-02-14T22:58:26.734Z,4.50
2018-02-14T23:00:54.332Z,4.50
2018-02-14T23:03:22.067Z,4.50
2018-02-14T23:05:49.709Z,4.50
2018-02-14T23:08:17.448Z,4.50
2018-02-14T23:10:45.252Z,4.50
2018-02-14T23:13:12.987Z,4.50
2018-02-14T23:15:40.632Z,4.40
2018-02-14T23:18:08.221Z,4.40
2018-02-14T23:20:36.772Z,4.40
2018-02-14T23:23:04.423Z,4.40
2018-02-14T23:25:32.094Z,4.50
2018-02-14T23:27:59.736Z,4.50
2018-02-14T23:30:27.542Z,4.50
2018-02-14T23:32:56.019Z,4.50
2018-02-14T23:35:23.654Z,4.50
2018-02-14T23:37:51.287Z,4.50
2018-02-14T23:40:18.920Z,4.50
2018-02-14T23:42:46.635Z,4.50
2018-02-14T23:45:14.190Z,4.40
2018-02-14T23:47:41.957Z,4.50
2018-02-14T23:50:09.710Z,4.50
2018-02-14T23:52:37.448Z,4.50
2018-02-14T23:55:05.093Z,4.50
2018-02-14T23:57:32.762Z,4.60
